This is the latest recevied weather packets stored in our database for station/object LKCS. If no packets are shown the sender has not sent any weather packets the latest 1 day(s).
| Time | Temp. | Humidity | Pressure | Rain* | Wind** | Luminosity | Snow |
|---|---|---|---|---|---|---|---|
| 1778089385 | 20° C | 45% | 1002 hPa | - | - | - | - |
| 1778083394 | 23.89° C | 29% | 1003 hPa | - | - | - | - |
| 1778077986 | 23.89° C | 29% | 1004 hPa | - | - | - | - |
| 1778072595 | 22.22° C | 37% | 1005 hPa | - | - | - | - |
| 1778070785 | 22.22° C | 37% | 1005 hPa | - | - | - | - |
| 1778065393 | 21.11° C | 40% | 1006 hPa | - | - | - | - |
| 1778059958 | 20° C | 49% | 1007 hPa | - | - | - | - |
| 1778056357 | 17.78° C | 59% | 1007 hPa | - | - | - | - |
| 1778054593 | 17.22° C | 59% | 1007 hPa | - | - | - | - |
| 1778050994 | 16.11° C | 72% | 1007 hPa | - | - | - | - |
| 1778049191 | 15° C | 77% | 1007 hPa | - | - | - | - |
| 1778047394 | 13.89° C | 82% | 1008 hPa | - | - | - | - |
| 1778045585 | 12.78° C | 87% | 1007 hPa | - | - | - | - |
| 1778043793 | 12.78° C | 87% | 1008 hPa | - | - | - | - |
| 1778040169 | 11.11° C | 93% | 1007 hPa | - | - | - | - |
| 1778036569 | 11.11° C | 100% | 1007 hPa | - | - | - | - |
| 1778032994 | 12.22° C | 100% | 1007 hPa | - | - | - | - |
| 1778031151 | 12.22° C | 100% | 1007 hPa | - | - | - | - |
| 1778029386 | 12.22° C | 93% | 1007 hPa | - | - | - | - |
| 1778027557 | 12.22° C | 93% | 1007 hPa | - | - | - | - |
| 1778022186 | 13.89° C | 87% | 1007 hPa | - | - | - | - |
| 1778020385 | 13.89° C | 93% | 1007 hPa | - | - | - | - |
| 1778018570 | 13.89° C | 87% | 1007 hPa | - | - | - | - |
| 1778018345 | 13.89° C | 87% | 1007 hPa | - | - | - | - |
| 1778014986 | 15° C | 82% | 1006 hPa | - | - | - | - |
* Rain since midnight (hover to see other rain measurements)
** Current wind speed in m/s (hover to see current wind gust speed)